Terminal Aerodrome Forecast
Issued by NWS

Home | Current Version | Previous Version | Text Only | Print | Product List | Glossary On
Versions: 1 2 3 4 5 6 7 8 9 10 11 12 13 14 15 16
000
FTAK31 PAJN 201100
TAFAKT
TAF
PAKT 201120Z 2012/2112 15015KT P6SM -RA FEW008 BKN012 OVC025
      WS020/17035KT
     FM201800 13015KT P6SM -SHRA BKN030 OVC050
     FM210200 16020G35KT P6SM -RA BKN020 OVC040 WS020/17040KT
     FM211000 14015G22KT P6SM -RA OVC030
      AMD LTD TO CLD VIS AND WIND 2012/2015=

USA.gov is the U.S. government's official web portal to all federal, state and local government web resources and services.